createdAt,value
2023-04-13T00:01:16.893Z,12.88
2023-04-13T00:03:45.777Z,12.88
2023-04-13T00:06:13.357Z,12.41
2023-04-13T00:08:42.878Z,12.00
2023-04-13T00:11:10.789Z,11.68
2023-04-13T00:13:41.073Z,12.61
2023-04-13T00:16:10.086Z,12.26
2023-04-13T00:18:40.055Z,11.87
2023-04-13T00:21:08.525Z,11.46
2023-04-13T00:23:36.141Z,11.99
2023-04-13T00:26:03.633Z,11.89
2023-04-13T00:28:31.069Z,12.34
2023-04-13T00:30:58.566Z,12.51
2023-04-13T00:33:26.025Z,12.48
2023-04-13T00:35:54.805Z,12.58
2023-04-13T00:38:24.135Z,12.44
2023-04-13T00:40:51.619Z,12.40
2023-04-13T00:43:19.063Z,12.35
2023-04-13T00:45:46.528Z,12.01
2023-04-13T00:48:14.431Z,12.21
2023-04-13T00:50:42.990Z,12.13
2023-04-13T00:53:13.644Z,12.38
2023-04-13T00:55:42.670Z,11.21
2023-04-13T00:58:10.630Z,11.65
2023-04-13T01:00:39.230Z,11.95
2023-04-13T01:03:07.960Z,11.91
2023-04-13T01:05:41.138Z,11.78
2023-04-13T01:08:20.256Z,11.99
2023-04-13T01:10:54.411Z,12.27
2023-04-13T01:13:25.303Z,12.23
2023-04-13T01:16:02.438Z,11.91
2023-04-13T01:18:32.336Z,12.21
2023-04-13T01:21:02.020Z,11.93
2023-04-13T01:23:46.189Z,12.07
2023-04-13T01:26:14.641Z,12.13
2023-04-13T01:28:43.884Z,12.17
2023-04-13T01:31:12.397Z,11.98
2023-04-13T01:33:41.498Z,11.57
2023-04-13T01:36:11.146Z,11.89
2023-04-13T01:38:38.822Z,11.70
2023-04-13T01:41:06.857Z,12.10
2023-04-13T01:43:35.083Z,11.64
2023-04-13T01:46:08.465Z,12.00
2023-04-13T01:48:40.179Z,12.04
2023-04-13T01:51:13.466Z,11.74
2023-04-13T01:53:43.800Z,11.86
2023-04-13T01:56:13.105Z,11.40
2023-04-13T01:58:41.758Z,10.88
2023-04-13T02:01:10.632Z,10.81
2023-04-13T02:03:38.867Z,11.39
2023-04-13T02:06:07.456Z,11.31
2023-04-13T02:08:36.826Z,11.05
2023-04-13T02:11:04.706Z,11.36
2023-04-13T02:13:32.159Z,11.19
2023-04-13T02:15:59.707Z,11.02
2023-04-13T02:18:28.517Z,11.21
2023-04-13T02:21:02.026Z,11.13
2023-04-13T02:23:31.401Z,11.27
2023-04-13T02:25:58.864Z,11.62
2023-04-13T02:28:27.773Z,11.44
2023-04-13T02:30:55.382Z,10.91
2023-04-13T02:33:23.345Z,11.19
2023-04-13T02:35:52.208Z,11.25
2023-04-13T02:38:19.587Z,11.42
2023-04-13T02:40:47.320Z,11.36
2023-04-13T02:43:14.812Z,11.29
2023-04-13T02:45:42.752Z,11.34
2023-04-13T02:48:10.543Z,11.47
2023-04-13T02:50:37.996Z,11.56
2023-04-13T02:53:07.826Z,11.25
2023-04-13T02:55:35.408Z,11.37
2023-04-13T02:59:07.449Z,11.32
2023-04-13T03:01:34.927Z,11.25
2023-04-13T03:04:02.506Z,11.30
2023-04-13T03:06:31.223Z,11.32
2023-04-13T03:09:00.902Z,11.20
2023-04-13T03:11:28.551Z,11.02
2023-04-13T03:13:58.727Z,10.99
2023-04-13T03:16:26.759Z,11.02
2023-04-13T03:18:54.557Z,11.12
2023-04-13T03:21:22.595Z,10.68
2023-04-13T03:23:50.055Z,11.07
2023-04-13T03:26:18.803Z,11.12
2023-04-13T03:28:47.218Z,11.05
2023-04-13T03:31:15.193Z,10.89
2023-04-13T03:33:42.633Z,11.00
2023-04-13T03:36:11.158Z,10.91
2023-04-13T03:38:38.619Z,11.01
2023-04-13T03:41:06.708Z,11.17
2023-04-13T03:43:35.952Z,10.81
2023-04-13T03:46:03.490Z,10.99
2023-04-13T03:48:30.955Z,10.85
2023-04-13T03:50:58.394Z,11.06
2023-04-13T03:53:25.959Z,11.01
2023-04-13T03:55:54.042Z,10.91
2023-04-13T03:58:21.970Z,11.12
2023-04-13T04:00:50.818Z,11.08
2023-04-13T04:03:18.659Z,11.06
2023-04-13T04:05:46.455Z,11.28
2023-04-13T04:08:13.872Z,11.26
2023-04-13T04:10:41.592Z,11.05
2023-04-13T04:13:09.007Z,11.02
2023-04-13T04:15:36.467Z,10.58
2023-04-13T04:18:05.605Z,10.72
2023-04-13T04:20:33.238Z,10.93
2023-04-13T04:23:01.165Z,10.96
2023-04-13T04:25:28.791Z,10.86
2023-04-13T04:27:57.731Z,10.80
2023-04-13T04:30:29.833Z,10.71
2023-04-13T04:32:57.454Z,10.50
2023-04-13T04:35:33.837Z,10.67
2023-04-13T04:38:04.229Z,10.63
2023-04-13T04:40:35.849Z,10.85
2023-04-13T04:43:04.875Z,10.71
2023-04-13T04:45:33.110Z,10.78
2023-04-13T04:48:00.745Z,10.44
2023-04-13T04:50:29.842Z,10.78
2023-04-13T04:52:57.717Z,10.76
2023-04-13T04:55:25.271Z,10.42
2023-04-13T04:57:52.714Z,10.77
2023-04-13T05:00:20.956Z,10.95
2023-04-13T05:02:50.063Z,10.40
2023-04-13T05:05:17.832Z,10.70
2023-04-13T05:07:46.702Z,11.01
2023-04-13T05:10:14.244Z,10.92
2023-04-13T05:12:41.681Z,11.09
2023-04-13T05:15:10.021Z,10.88
2023-04-13T05:17:37.539Z,11.07
2023-04-13T05:20:06.824Z,10.88
2023-04-13T05:22:34.395Z,11.02
2023-04-13T05:25:03.200Z,11.16
2023-04-13T05:27:30.648Z,9.93
2023-04-13T05:29:58.222Z,10.98
2023-04-13T05:32:25.701Z,11.50
2023-04-13T05:34:53.114Z,11.29
2023-04-13T05:37:20.651Z,11.40
2023-04-13T05:39:48.089Z,11.10
2023-04-13T05:42:17.184Z,11.44
2023-04-13T05:44:44.655Z,11.25
2023-04-13T05:47:12.072Z,11.72
2023-04-13T05:49:39.479Z,11.72
2023-04-13T05:52:07.729Z,11.91
2023-04-13T05:54:38.382Z,11.15
2023-04-13T05:57:06.188Z,11.66
2023-04-13T05:59:34.995Z,11.72
2023-04-13T06:02:03.119Z,11.95
2023-04-13T06:04:31.834Z,11.54
2023-04-13T06:06:59.580Z,11.21
2023-04-13T06:09:27.185Z,11.24
2023-04-13T06:11:54.959Z,11.75
2023-04-13T06:14:23.468Z,11.20
2023-04-13T06:16:53.360Z,11.64
2023-04-13T06:19:20.973Z,11.99
2023-04-13T06:21:48.403Z,11.33
2023-04-13T06:24:15.890Z,11.54
2023-04-13T06:26:43.465Z,11.60
2023-04-13T06:29:10.928Z,12.42
2023-04-13T06:31:38.586Z,12.97
2023-04-13T06:34:07.476Z,13.12
2023-04-13T06:36:34.901Z,13.67
2023-04-13T06:39:02.445Z,13.82
2023-04-13T06:41:29.858Z,13.62
2023-04-13T06:43:57.327Z,13.43
2023-04-13T06:46:24.827Z,12.19
2023-04-13T06:48:52.225Z,12.79
2023-04-13T06:51:21.001Z,13.09
2023-04-13T06:53:48.425Z,13.01
2023-04-13T06:56:16.100Z,11.41
2023-04-13T06:58:43.534Z,12.54
2023-04-13T07:01:12.438Z,12.25
2023-04-13T07:03:40.404Z,12.70
2023-04-13T07:06:09.039Z,12.00
2023-04-13T07:08:37.823Z,12.68
2023-04-13T07:11:05.532Z,12.66
2023-04-13T07:13:33.012Z,12.31
2023-04-13T07:16:00.562Z,12.16
2023-04-13T07:18:27.994Z,12.10
2023-04-13T07:20:55.902Z,12.50
2023-04-13T07:23:23.659Z,12.14
2023-04-13T07:25:52.655Z,12.35
2023-04-13T07:28:20.215Z,12.76
2023-04-13T07:30:47.939Z,12.78
2023-04-13T07:33:15.409Z,12.20
2023-04-13T07:35:42.867Z,12.79
2023-04-13T07:38:10.568Z,12.69
2023-04-13T07:40:38.003Z,12.69
2023-04-13T07:43:06.733Z,13.16
2023-04-13T07:45:34.222Z,12.71
2023-04-13T07:48:01.699Z,12.34
2023-04-13T07:50:29.321Z,12.49
2023-04-13T07:52:56.719Z,12.64
2023-04-13T07:55:24.444Z,13.31
2023-04-13T07:57:51.907Z,13.71
2023-04-13T08:00:22.875Z,13.25
2023-04-13T08:02:50.481Z,13.22
2023-04-13T08:05:18.667Z,12.77
2023-04-13T08:07:48.912Z,13.91
2023-04-13T08:10:16.728Z,13.95
2023-04-13T08:12:44.176Z,14.26
2023-04-13T08:15:12.221Z,14.53
2023-04-13T08:17:41.914Z,14.22
2023-04-13T08:20:10.586Z,14.42
2023-04-13T08:22:38.081Z,14.27
2023-04-13T08:25:06.690Z,14.71
2023-04-13T08:27:34.117Z,14.78
2023-04-13T08:30:02.473Z,14.66
2023-04-13T08:32:30.130Z,14.14
2023-04-13T08:34:59.059Z,14.00
2023-04-13T08:37:28.808Z,14.64
2023-04-13T08:40:00.478Z,14.99
2023-04-13T08:42:29.330Z,14.91
2023-04-13T08:44:59.008Z,15.21
2023-04-13T08:47:28.246Z,14.25
2023-04-13T08:49:59.554Z,15.12
2023-04-13T08:52:27.408Z,14.20
2023-04-13T08:54:56.671Z,13.95
2023-04-13T08:57:24.649Z,15.02
2023-04-13T08:59:53.152Z,14.85
2023-04-13T09:02:26.215Z,14.54
2023-04-13T09:04:56.154Z,15.19
2023-04-13T09:07:27.764Z,15.23
2023-04-13T09:09:57.935Z,15.14
2023-04-13T09:12:25.901Z,14.94
2023-04-13T09:14:53.625Z,14.77
2023-04-13T09:17:26.674Z,15.30
2023-04-13T09:19:55.053Z,15.36
2023-04-13T09:22:22.742Z,16.19
2023-04-13T09:24:51.537Z,15.88
2023-04-13T09:27:20.269Z,16.06
2023-04-13T09:29:53.153Z,15.44
2023-04-13T09:32:22.363Z,16.25
2023-04-13T09:35:04.709Z,15.78
2023-04-13T09:37:32.493Z,14.99
2023-04-13T09:40:11.174Z,15.07
2023-04-13T09:42:39.679Z,15.07
2023-04-13T09:45:08.484Z,15.93
2023-04-13T09:47:36.931Z,15.08
2023-04-13T09:50:05.532Z,16.11
2023-04-13T09:52:33.360Z,15.94
2023-04-13T09:55:01.016Z,15.10
2023-04-13T09:57:31.338Z,16.04
2023-04-13T10:00:02.012Z,16.29
2023-04-13T10:02:29.903Z,15.73
2023-04-13T10:04:58.313Z,15.80
2023-04-13T10:07:29.950Z,16.23
2023-04-13T10:09:57.451Z,16.41
2023-04-13T10:12:27.711Z,15.63
2023-04-13T10:15:16.615Z,15.87
2023-04-13T10:17:53.662Z,15.94
2023-04-13T10:20:21.907Z,15.48
2023-04-13T10:22:50.164Z,15.02
2023-04-13T10:25:31.925Z,16.30
2023-04-13T10:28:01.055Z,16.02
2023-04-13T10:30:29.953Z,14.97
2023-04-13T10:33:09.450Z,15.25
2023-04-13T10:35:38.950Z,15.36
2023-04-13T10:38:08.820Z,15.65
2023-04-13T10:40:46.141Z,15.94
2023-04-13T10:43:13.668Z,15.74
2023-04-13T10:45:42.522Z,16.45
2023-04-13T10:48:21.194Z,16.31
2023-04-13T10:50:58.569Z,16.80
2023-04-13T10:53:30.308Z,16.43
2023-04-13T10:55:58.687Z,15.73
2023-04-13T10:58:28.162Z,15.26
2023-04-13T11:00:58.392Z,15.96
2023-04-13T11:03:28.403Z,16.64
2023-04-13T11:05:59.840Z,17.17
2023-04-13T11:08:27.996Z,17.11
2023-04-13T11:10:57.275Z,16.94
2023-04-13T11:13:26.754Z,17.07
2023-04-13T11:16:03.807Z,16.91
2023-04-13T11:18:31.785Z,16.47
2023-04-13T11:20:59.342Z,16.72
2023-04-13T11:23:26.806Z,17.04
2023-04-13T11:25:56.481Z,16.71
2023-04-13T11:28:25.405Z,16.95
2023-04-13T11:30:54.471Z,17.06
2023-04-13T11:33:27.329Z,17.25
2023-04-13T11:35:55.880Z,17.12
2023-04-13T11:38:23.930Z,17.22
2023-04-13T11:40:58.938Z,17.14
2023-04-13T11:43:35.666Z,17.36
2023-04-13T11:46:03.188Z,17.39
2023-04-13T11:48:32.654Z,17.70
2023-04-13T11:51:00.881Z,17.72
2023-04-13T11:53:29.081Z,17.71
2023-04-13T11:55:56.611Z,17.38
2023-04-13T11:58:24.828Z,17.57
2023-04-13T12:00:54.474Z,17.57
2023-04-13T12:03:38.429Z,17.77
2023-04-13T12:06:10.870Z,18.05
2023-04-13T12:08:39.300Z,16.82
2023-04-13T12:11:39.024Z,16.68
2023-04-13T12:14:06.938Z,17.73
2023-04-13T12:19:12.784Z,17.76
2023-04-13T12:21:53.284Z,17.78
2023-04-13T12:24:20.834Z,17.69
2023-04-13T12:29:18.549Z,17.28
2023-04-13T12:31:47.613Z,17.28
2023-04-13T12:34:15.431Z,17.37
2023-04-13T12:36:42.848Z,17.54
2023-04-13T12:39:11.766Z,17.66
2023-04-13T12:41:39.165Z,17.31
2023-04-13T12:44:06.877Z,17.19
2023-04-13T12:46:34.320Z,16.56
2023-04-13T12:49:02.045Z,16.48
2023-04-13T12:51:29.772Z,17.52
2023-04-13T12:53:57.179Z,17.99
2023-04-13T12:56:26.480Z,18.08
2023-04-13T12:58:54.022Z,18.08
2023-04-13T13:01:21.795Z,17.56
2023-04-13T13:03:49.327Z,17.75
2023-04-13T13:06:16.786Z,17.33
2023-04-13T13:08:44.361Z,16.89
2023-04-13T13:11:11.769Z,17.22
2023-04-13T13:13:40.667Z,17.69
2023-04-13T13:16:08.547Z,17.88
2023-04-13T13:19:00.957Z,17.07
2023-04-13T13:21:23.818Z,17.66
2023-04-13T13:23:51.397Z,15.80
2023-04-13T13:26:23.795Z,15.61
2023-04-13T13:28:54.958Z,16.78
2023-04-13T13:31:22.408Z,16.58
2023-04-13T13:33:50.013Z,17.40
2023-04-13T13:36:17.462Z,17.21
2023-04-13T13:38:44.922Z,16.86
2023-04-13T13:41:12.487Z,16.99
2023-04-13T13:43:40.434Z,17.39
2023-04-13T13:46:09.252Z,17.04
2023-04-13T13:48:36.934Z,17.17
2023-04-13T13:51:06.877Z,17.53
2023-04-13T13:53:35.106Z,17.18
2023-04-13T13:56:04.234Z,17.41
2023-04-13T13:58:31.696Z,17.19
2023-04-13T14:00:59.412Z,17.50
2023-04-13T14:03:28.390Z,17.94
2023-04-13T14:05:55.900Z,17.97
2023-04-13T14:08:23.290Z,18.11
2023-04-13T14:10:50.865Z,17.48
2023-04-13T14:13:18.333Z,17.52
2023-04-13T14:15:46.060Z,17.83
2023-04-13T14:18:13.532Z,17.73
2023-04-13T14:20:43.400Z,17.91
2023-04-13T14:23:11.236Z,17.90
2023-04-13T14:25:41.068Z,17.72
2023-04-13T14:28:11.174Z,17.24
2023-04-13T14:30:40.047Z,17.24
2023-04-13T14:33:08.377Z,17.69
2023-04-13T14:35:35.919Z,18.13
2023-04-13T14:38:04.676Z,18.03
2023-04-13T14:40:32.573Z,17.85
2023-04-13T14:43:00.058Z,17.05
2023-04-13T14:45:28.578Z,17.34
2023-04-13T14:47:56.040Z,16.59
2023-04-13T14:50:23.516Z,17.20
2023-04-13T14:52:51.149Z,17.73
2023-04-13T14:55:20.410Z,17.57
2023-04-13T14:57:48.047Z,17.31
2023-04-13T15:00:21.431Z,17.85
2023-04-13T15:02:49.857Z,16.91
2023-04-13T15:05:17.501Z,17.88
2023-04-13T15:07:45.997Z,18.14
2023-04-13T15:10:14.472Z,17.26
2023-04-13T15:12:43.247Z,17.62
2023-04-13T15:15:11.740Z,17.70
2023-04-13T15:17:39.182Z,17.41
2023-04-13T15:20:07.968Z,16.80
2023-04-13T15:22:36.756Z,17.58
2023-04-13T15:25:04.644Z,17.58
2023-04-13T15:27:32.059Z,17.80
2023-04-13T15:30:03.107Z,17.97
2023-04-13T15:32:31.117Z,18.06
2023-04-13T15:34:58.591Z,18.04
2023-04-13T15:37:26.066Z,17.27
2023-04-13T15:39:55.067Z,17.37
2023-04-13T15:42:23.016Z,17.38
2023-04-13T15:44:50.721Z,16.17
2023-04-13T15:47:19.569Z,17.20
2023-04-13T15:49:47.022Z,17.20
2023-04-13T15:52:14.416Z,16.79
2023-04-13T15:54:41.843Z,17.44
2023-04-13T15:57:09.256Z,17.53
2023-04-13T15:59:36.645Z,17.27
2023-04-13T16:02:04.337Z,17.62
2023-04-13T16:04:33.418Z,16.85
2023-04-13T16:07:12.774Z,17.59
2023-04-13T16:09:43.538Z,17.69
2023-04-13T16:12:12.038Z,17.82
2023-04-13T16:14:42.079Z,17.54
2023-04-13T16:17:10.398Z,17.56
2023-04-13T16:19:39.642Z,16.84
2023-04-13T16:22:10.413Z,17.20
2023-04-13T16:24:38.425Z,17.41
2023-04-13T16:27:06.286Z,16.97
2023-04-13T16:29:34.054Z,17.56
2023-04-13T16:32:01.493Z,16.60
2023-04-13T16:34:30.564Z,17.41
2023-04-13T16:36:59.333Z,17.73
2023-04-13T16:39:26.774Z,17.80
2023-04-13T16:41:54.174Z,17.63
2023-04-13T16:44:21.591Z,18.07
2023-04-13T16:46:49.002Z,18.25
2023-04-13T16:49:16.754Z,17.89
2023-04-13T16:51:44.129Z,17.98
2023-04-13T16:54:13.931Z,18.41
2023-04-13T16:56:41.461Z,18.59
2023-04-13T16:59:08.871Z,18.37
2023-04-13T17:01:39.180Z,18.54
2023-04-13T17:04:07.493Z,18.47
2023-04-13T17:06:38.072Z,18.39
2023-04-13T17:09:05.559Z,18.07
2023-04-13T17:11:34.389Z,17.44
2023-04-13T17:14:01.825Z,17.52
2023-04-13T17:16:29.412Z,17.20
2023-04-13T17:18:57.446Z,17.33
2023-04-13T17:21:25.267Z,16.93
2023-04-13T17:23:52.669Z,17.12
2023-04-13T17:26:20.072Z,16.66
2023-04-13T17:28:48.911Z,16.78
2023-04-13T17:31:16.585Z,16.64
2023-04-13T17:33:44.937Z,16.18
2023-04-13T17:36:12.364Z,16.34
2023-04-13T17:38:39.877Z,16.06
2023-04-13T17:41:07.512Z,15.62
2023-04-13T17:43:34.966Z,15.95
2023-04-13T17:46:03.762Z,16.21
2023-04-13T17:48:31.224Z,16.41
2023-04-13T17:50:58.634Z,16.49
2023-04-13T17:53:27.001Z,16.25
2023-04-13T17:55:54.434Z,16.10
2023-04-13T17:58:21.839Z,15.95
2023-04-13T18:00:49.350Z,16.14
2023-04-13T18:03:18.446Z,16.21
2023-04-13T18:05:46.077Z,16.15
2023-04-13T18:08:13.544Z,15.99
2023-04-13T18:10:41.004Z,16.18
2023-04-13T18:13:08.429Z,15.92
2023-04-13T18:15:36.038Z,15.81
2023-04-13T18:18:03.589Z,15.49
2023-04-13T18:20:32.506Z,15.74
2023-04-13T18:22:59.991Z,15.74
2023-04-13T18:25:27.554Z,15.93
2023-04-13T18:27:54.944Z,15.72
2023-04-13T18:30:22.481Z,15.70
2023-04-13T18:32:51.397Z,15.61
2023-04-13T18:35:18.911Z,15.32
2023-04-13T18:37:47.803Z,15.39
2023-04-13T18:40:15.298Z,15.45
2023-04-13T18:42:42.871Z,15.21
2023-04-13T18:45:11.101Z,14.87
2023-04-13T18:47:39.043Z,14.80
2023-04-13T18:50:07.748Z,15.32
2023-04-13T18:52:35.513Z,15.19
2023-04-13T18:55:04.678Z,14.94
2023-04-13T18:57:32.084Z,14.72
2023-04-13T18:59:59.748Z,14.88
2023-04-13T19:02:27.431Z,15.19
2023-04-13T19:04:55.210Z,15.21
2023-04-13T19:07:22.740Z,14.73
2023-04-13T19:09:50.219Z,14.97
2023-04-13T19:12:18.976Z,15.19
2023-04-13T19:14:46.949Z,15.32
2023-04-13T19:17:14.377Z,15.11
2023-04-13T19:19:41.956Z,14.71
2023-04-13T19:22:09.403Z,14.61
2023-04-13T19:24:37.473Z,14.36
2023-04-13T19:27:04.919Z,14.05
2023-04-13T19:29:34.742Z,14.26
2023-04-13T19:32:02.264Z,14.39
2023-04-13T19:34:29.707Z,14.50
2023-04-13T19:36:57.173Z,14.11
2023-04-13T19:39:24.670Z,14.14
2023-04-13T19:41:53.241Z,14.08
2023-04-13T19:44:20.747Z,14.22
2023-04-13T19:46:49.556Z,14.37
2023-04-13T19:49:17.116Z,14.55
2023-04-13T19:51:44.655Z,14.66
2023-04-13T19:54:12.361Z,14.31
2023-04-13T19:56:40.136Z,14.44
2023-04-13T19:59:07.938Z,14.86
2023-04-13T20:01:35.535Z,14.61
2023-04-13T20:04:05.906Z,14.68
2023-04-13T20:06:34.091Z,14.77
2023-04-13T20:09:09.290Z,14.70
2023-04-13T20:11:36.843Z,14.51
2023-04-13T20:14:04.985Z,14.27
2023-04-13T20:16:32.531Z,14.12
2023-04-13T20:19:00.918Z,13.86
2023-04-13T20:21:31.128Z,13.64
2023-04-13T20:23:59.141Z,13.75
2023-04-13T20:26:30.080Z,13.92
2023-04-13T20:28:57.650Z,13.96
2023-04-13T20:31:31.931Z,13.86
2023-04-13T20:33:59.711Z,13.72
2023-04-13T20:36:27.566Z,13.60
2023-04-13T20:38:59.671Z,13.89
2023-04-13T20:41:29.764Z,13.76
2023-04-13T20:43:58.755Z,13.33
2023-04-13T20:46:34.016Z,13.78
2023-04-13T20:49:04.226Z,13.74
2023-04-13T20:51:33.045Z,13.36
2023-04-13T20:54:05.219Z,13.35
2023-04-13T20:56:33.056Z,13.09
2023-04-13T20:59:00.943Z,13.36
2023-04-13T21:01:30.190Z,13.68
2023-04-13T21:03:58.143Z,13.76
2023-04-13T21:06:25.851Z,13.76
2023-04-13T21:08:54.725Z,13.48
2023-04-13T21:11:23.526Z,13.57
2023-04-13T21:13:51.064Z,13.34
2023-04-13T21:16:18.687Z,13.24
2023-04-13T21:18:46.264Z,13.05
2023-04-13T21:21:13.871Z,13.29
2023-04-13T21:23:41.531Z,13.18
2023-04-13T21:26:11.361Z,13.23
2023-04-13T21:28:40.126Z,13.16
2023-04-13T21:31:07.642Z,13.01
2023-04-13T21:33:35.532Z,13.29
2023-04-13T21:38:40.307Z,12.88
2023-04-13T21:41:14.313Z,12.76
2023-04-13T21:43:43.847Z,12.77
2023-04-13T21:46:12.521Z,12.87
2023-04-13T21:48:40.728Z,12.83
2023-04-13T21:51:09.733Z,12.89
2023-04-13T21:53:38.446Z,13.08
2023-04-13T21:56:06.814Z,13.11
2023-04-13T21:58:40.187Z,12.78
2023-04-13T22:01:09.703Z,13.00
2023-04-13T22:03:38.137Z,12.95
2023-04-13T22:06:07.915Z,12.89
2023-04-13T22:08:36.045Z,13.06
2023-04-13T22:11:03.835Z,12.98
2023-04-13T22:13:31.494Z,12.94
2023-04-13T22:15:59.297Z,12.79
2023-04-13T22:18:28.390Z,12.57
2023-04-13T22:20:55.830Z,12.49
2023-04-13T22:23:23.340Z,12.46
2023-04-13T22:25:58.362Z,12.32
2023-04-13T22:28:26.425Z,12.52
2023-04-13T22:30:54.104Z,12.62
2023-04-13T22:33:21.814Z,12.56
2023-04-13T22:35:51.722Z,12.35
2023-04-13T22:38:19.699Z,12.39
2023-04-13T22:40:47.367Z,12.26
2023-04-13T22:43:14.818Z,11.80
2023-04-13T22:45:42.283Z,11.69
2023-04-13T22:48:09.767Z,11.69
2023-04-13T22:50:37.694Z,12.42
2023-04-13T22:53:06.475Z,12.51
2023-04-13T22:55:34.078Z,12.65
2023-04-13T22:58:01.661Z,12.69
2023-04-13T23:00:29.170Z,12.47
2023-04-13T23:02:56.817Z,12.63
2023-04-13T23:05:24.885Z,12.46
2023-04-13T23:07:52.402Z,12.41
2023-04-13T23:10:21.358Z,12.24
2023-04-13T23:12:48.934Z,12.09
2023-04-13T23:15:16.544Z,12.18
2023-04-13T23:17:44.082Z,12.38
2023-04-13T23:20:11.945Z,12.36
2023-04-13T23:22:39.467Z,12.19
2023-04-13T23:25:07.516Z,12.01
2023-04-13T23:27:36.778Z,11.84
2023-04-13T23:30:04.514Z,11.80
2023-04-13T23:32:31.956Z,11.62
2023-04-13T23:34:59.473Z,11.81
2023-04-13T23:37:26.988Z,12.29
2023-04-13T23:39:54.634Z,12.05
2023-04-13T23:42:22.238Z,11.84
2023-04-13T23:44:51.160Z,11.68
2023-04-13T23:47:18.649Z,11.65
2023-04-13T23:49:46.907Z,12.05
2023-04-13T23:52:14.386Z,12.10
2023-04-13T23:54:41.812Z,12.21
2023-04-13T23:57:09.748Z,11.75
2023-04-13T23:59:37.211Z,12.18
